La Grande, Oregon

3:31 AM PDT on October 01, 2016 (GMT -0700)
RAWS | | Change Station

Elev 5180 ft 45.11 °N, 118.40 °W | Updated 1 hour ago

Scattered Clouds
Scattered Clouds
41.0 °F
Feels Like 41.0 °F
N
1.0
Wind Variable Wind from WNW
Gusts 6.0 mph

Today
High -- | Low -- °F
--% Chance of Precip.
Yesterday
High -- | Low -- °F
Precip. -- in
Pressure 29.98 in
Visibility 10.0 miles
Clouds Scattered Clouds 12000 ft
Dew Point 33.0 °F
Humidity 74%
Rainfall in
Snow Depth Not available.
6:52 AM 6:32 PM
New Moon, 0% visible
METAR KLGD 011015Z AUTO 31014KT 10SM SCT120 12/M02 A2998 RMK AO1
Pressure 29.98 in
Visibility 10.0 miles
Clouds Scattered Clouds 12000 ft
Dew Point 33.0 °F
Humidity 74%
Rainfall in
Snow Depth Not available.
6:52 AM 6:32 PM
New Moon, 0% visible
METAR KLGD 011015Z AUTO 31014KT 10SM SCT120 12/M02 A2998 RMK AO1

10-Day Weather Forecast

Almanac

Astronomy

Oct. 01, 2016 Rise Set
Actual Time
Civil Twilight
Nautical Twilight
Astronomical Twilight
Moon
Length of Visible Light
Length of Day
Tomorrow will be .
, % of the Moon is Illuminated

Today's Extremes

State Highs State Lows

Community

WunderPhotos

Upload Photos

1,942,908 photos uploaded!

WunderBlog® & News

Nearby

Air Quality

  Air Quality AQ Index Pollutant
Not available.

Snow Depth

Station Depth Elevation

Earthquake Activity

City Distance Mag. Time & Date
Minimum magnitude displayed is 2.5.

Coastal Water Temperatures

Place Temperature

Stations

Nearby Weather Stations

Station Location Temp. Windchill Dew Point Humidity Wind Precip. Elev Updated Type
                   

Watches & Warnings

There are currently no watches in effect.